sensor_id;sensor_type;location;lat;lon;timestamp;pressure;altitude;pressure_sealevel;temperature;humidity
85319;BME280;75722;49.004;12.120;2024-02-26T00:01:56;96239.72;;;0.64;83.78
85319;BME280;75722;49.004;12.120;2024-02-26T00:04:21;96235.06;;;0.58;84.06
85319;BME280;75722;49.004;12.120;2024-02-26T00:06:47;96228.13;;;0.48;84.16
85319;BME280;75722;49.004;12.120;2024-02-26T00:09:15;96224.69;;;0.80;83.77
85319;BME280;75722;49.004;12.120;2024-02-26T00:11:40;96213.94;;;0.96;84.60
85319;BME280;75722;49.004;12.120;2024-02-26T00:14:06;96216.84;;;0.78;84.29
85319;BME280;75722;49.004;12.120;2024-02-26T00:16:31;96216.44;;;0.98;83.99
85319;BME280;75722;49.004;12.120;2024-02-26T00:18:57;96222.06;;;0.71;84.01
85319;BME280;75722;49.004;12.120;2024-02-26T00:21:22;96229.72;;;0.66;83.90
85319;BME280;75722;49.004;12.120;2024-02-26T00:23:49;96228.56;;;0.60;83.82
85319;BME280;75722;49.004;12.120;2024-02-26T00:26:15;96226.13;;;0.42;84.01
85319;BME280;75722;49.004;12.120;2024-02-26T00:28:41;96215.78;;;0.47;84.18
85319;BME280;75722;49.004;12.120;2024-02-26T00:31:06;96217.13;;;0.43;84.56
85319;BME280;75722;49.004;12.120;2024-02-26T00:33:31;96221.00;;;0.32;84.66
85319;BME280;75722;49.004;12.120;2024-02-26T00:35:57;96217.69;;;0.22;84.32
85319;BME280;75722;49.004;12.120;2024-02-26T00:38:22;96216.69;;;0.31;84.69
85319;BME280;75722;49.004;12.120;2024-02-26T00:40:47;96217.31;;;0.42;83.90
85319;BME280;75722;49.004;12.120;2024-02-26T00:43:13;96222.19;;;0.13;84.16
85319;BME280;75722;49.004;12.120;2024-02-26T00:45:38;96224.50;;;0.16;84.24
85319;BME280;75722;49.004;12.120;2024-02-26T00:48:03;96213.19;;;0.22;84.30
85319;BME280;75722;49.004;12.120;2024-02-26T00:50:33;96218.50;;;0.31;84.43
85319;BME280;75722;49.004;12.120;2024-02-26T00:52:58;96214.53;;;0.02;84.75
85319;BME280;75722;49.004;12.120;2024-02-26T00:55:24;96208.75;;;-0.02;84.31
85319;BME280;75722;49.004;12.120;2024-02-26T00:57:49;96203.63;;;-0.20;84.42
85319;BME280;75722;49.004;12.120;2024-02-26T01:00:15;96210.75;;;-0.29;84.49
85319;BME280;75722;49.004;12.120;2024-02-26T01:02:40;96207.94;;;-0.36;84.51
85319;BME280;75722;49.004;12.120;2024-02-26T01:05:07;96202.28;;;-0.41;84.55
85319;BME280;75722;49.004;12.120;2024-02-26T01:07:34;96203.59;;;-0.54;84.38
85319;BME280;75722;49.004;12.120;2024-02-26T01:10:01;96208.28;;;-0.39;85.04
85319;BME280;75722;49.004;12.120;2024-02-26T01:12:27;96209.75;;;-0.45;84.31
85319;BME280;75722;49.004;12.120;2024-02-26T01:14:52;96203.97;;;-0.40;85.14
85319;BME280;75722;49.004;12.120;2024-02-26T01:19:45;96207.91;;;-0.44;84.81
85319;BME280;75722;49.004;12.120;2024-02-26T01:22:10;96202.28;;;-0.49;84.76
85319;BME280;75722;49.004;12.120;2024-02-26T01:24:35;96197.97;;;-0.59;84.74
85319;BME280;75722;49.004;12.120;2024-02-26T01:27:00;96204.25;;;-0.60;84.71
85319;BME280;75722;49.004;12.120;2024-02-26T01:29:26;96198.75;;;-0.83;84.77
85319;BME280;75722;49.004;12.120;2024-02-26T01:31:51;96195.94;;;-0.82;84.42
85319;BME280;75722;49.004;12.120;2024-02-26T01:34:16;96206.41;;;-0.72;84.97
85319;BME280;75722;49.004;12.120;2024-02-26T01:36:43;96198.44;;;-0.80;84.92
85319;BME280;75722;49.004;12.120;2024-02-26T01:39:08;96203.53;;;-0.87;84.81
85319;BME280;75722;49.004;12.120;2024-02-26T01:41:37;96199.91;;;-0.86;85.21
85319;BME280;75722;49.004;12.120;2024-02-26T01:44:02;96204.84;;;-0.99;84.56
85319;BME280;75722;49.004;12.120;2024-02-26T01:46:29;96211.34;;;-0.94;84.66
85319;BME280;75722;49.004;12.120;2024-02-26T01:48:55;96213.47;;;-1.06;84.84
85319;BME280;75722;49.004;12.120;2024-02-26T01:51:21;96214.13;;;-1.12;85.11
85319;BME280;75722;49.004;12.120;2024-02-26T01:53:47;96218.13;;;-0.99;84.99
85319;BME280;75722;49.004;12.120;2024-02-26T01:56:14;96224.47;;;-0.92;85.21
85319;BME280;75722;49.004;12.120;2024-02-26T01:58:41;96217.50;;;-1.01;85.21
85319;BME280;75722;49.004;12.120;2024-02-26T02:01:07;96210.47;;;-1.11;85.00
85319;BME280;75722;49.004;12.120;2024-02-26T02:03:32;96212.94;;;-1.18;84.73
85319;BME280;75722;49.004;12.120;2024-02-26T02:05:58;96217.72;;;-1.30;85.04
85319;BME280;75722;49.004;12.120;2024-02-26T02:08:24;96210.91;;;-1.32;85.30
85319;BME280;75722;49.004;12.120;2024-02-26T02:10:50;96215.38;;;-1.33;85.20
85319;BME280;75722;49.004;12.120;2024-02-26T02:13:15;96212.25;;;-1.28;84.96
85319;BME280;75722;49.004;12.120;2024-02-26T02:15:41;96201.44;;;-1.35;85.08
85319;BME280;75722;49.004;12.120;2024-02-26T02:18:06;96202.78;;;-1.31;84.60
85319;BME280;75722;49.004;12.120;2024-02-26T02:20:35;96211.91;;;-1.33;85.23
85319;BME280;75722;49.004;12.120;2024-02-26T02:23:01;96209.41;;;-1.35;85.58
85319;BME280;75722;49.004;12.120;2024-02-26T02:25:27;96200.41;;;-1.42;85.21
85319;BME280;75722;49.004;12.120;2024-02-26T02:27:54;96202.59;;;-1.37;85.07
85319;BME280;75722;49.004;12.120;2024-02-26T02:30:29;96196.53;;;-1.56;85.56
85319;BME280;75722;49.004;12.120;2024-02-26T02:32:55;96193.34;;;-1.60;85.01
85319;BME280;75722;49.004;12.120;2024-02-26T02:35:20;96193.34;;;-1.60;84.98
85319;BME280;75722;49.004;12.120;2024-02-26T02:37:46;96194.19;;;-1.59;84.92
85319;BME280;75722;49.004;12.120;2024-02-26T02:40:11;96197.00;;;-1.61;84.91
85319;BME280;75722;49.004;12.120;2024-02-26T02:42:36;96184.56;;;-1.60;85.34
85319;BME280;75722;49.004;12.120;2024-02-26T02:45:02;96189.38;;;-1.56;84.95
85319;BME280;75722;49.004;12.120;2024-02-26T02:47:27;96185.59;;;-1.53;85.08
85319;BME280;75722;49.004;12.120;2024-02-26T02:49:52;96191.59;;;-1.43;85.16
85319;BME280;75722;49.004;12.120;2024-02-26T02:52:18;96186.25;;;-1.51;85.42
85319;BME280;75722;49.004;12.120;2024-02-26T02:54:43;96182.97;;;-1.45;85.30
85319;BME280;75722;49.004;12.120;2024-02-26T02:57:09;96183.41;;;-1.58;85.24
85319;BME280;75722;49.004;12.120;2024-02-26T02:59:35;96180.22;;;-1.61;84.96
85319;BME280;75722;49.004;12.120;2024-02-26T03:02:01;96189.44;;;-1.47;85.00
85319;BME280;75722;49.004;12.120;2024-02-26T03:04:26;96193.72;;;-1.55;85.49
85319;BME280;75722;49.004;12.120;2024-02-26T03:06:51;96188.41;;;-1.55;85.08
85319;BME280;75722;49.004;12.120;2024-02-26T03:09:17;96188.03;;;-1.60;85.24
85319;BME280;75722;49.004;12.120;2024-02-26T03:11:42;96194.81;;;-1.65;84.94
85319;BME280;75722;49.004;12.120;2024-02-26T03:14:08;96196.34;;;-1.63;85.05
85319;BME280;75722;49.004;12.120;2024-02-26T03:16:34;96197.63;;;-1.67;85.37
85319;BME280;75722;49.004;12.120;2024-02-26T03:19:00;96197.63;;;-1.67;84.80
85319;BME280;75722;49.004;12.120;2024-02-26T03:21:27;96190.50;;;-1.66;85.01
85319;BME280;75722;49.004;12.120;2024-02-26T03:23:52;96193.16;;;-1.66;85.55
85319;BME280;75722;49.004;12.120;2024-02-26T03:26:18;96187.66;;;-1.73;85.19
85319;BME280;75722;49.004;12.120;2024-02-26T03:28:43;96189.16;;;-1.71;84.87
85319;BME280;75722;49.004;12.120;2024-02-26T03:31:09;96177.22;;;-1.66;85.19
85319;BME280;75722;49.004;12.120;2024-02-26T03:33:35;96183.84;;;-1.71;85.42
85319;BME280;75722;49.004;12.120;2024-02-26T03:36:01;96187.97;;;-1.76;85.36
85319;BME280;75722;49.004;12.120;2024-02-26T03:38:28;96187.94;;;-1.85;85.04
85319;BME280;75722;49.004;12.120;2024-02-26T03:40:53;96190.06;;;-1.88;84.91
85319;BME280;75722;49.004;12.120;2024-02-26T03:43:18;96188.59;;;-1.83;85.49
85319;BME280;75722;49.004;12.120;2024-02-26T03:45:44;96191.50;;;-1.94;84.93
85319;BME280;75722;49.004;12.120;2024-02-26T03:48:09;96198.97;;;-1.98;85.31
85319;BME280;75722;49.004;12.120;2024-02-26T03:50:34;96182.19;;;-1.98;85.15
85319;BME280;75722;49.004;12.120;2024-02-26T03:53:00;96184.53;;;-1.95;84.94
85319;BME280;75722;49.004;12.120;2024-02-26T03:55:25;96179.28;;;-1.87;85.61
85319;BME280;75722;49.004;12.120;2024-02-26T03:57:51;96180.00;;;-1.76;85.19
85319;BME280;75722;49.004;12.120;2024-02-26T04:00:17;96177.13;;;-1.91;85.11
85319;BME280;75722;49.004;12.120;2024-02-26T04:02:43;96175.25;;;-1.99;84.57
85319;BME280;75722;49.004;12.120;2024-02-26T04:05:11;96177.06;;;-2.00;85.25
85319;BME280;75722;49.004;12.120;2024-02-26T04:07:37;96177.91;;;-1.99;85.28
85319;BME280;75722;49.004;12.120;2024-02-26T04:10:03;96169.25;;;-2.01;84.86
85319;BME280;75722;49.004;12.120;2024-02-26T04:12:31;96173.19;;;-2.06;85.10
85319;BME280;75722;49.004;12.120;2024-02-26T04:14:56;96179.81;;;-2.10;85.30
85319;BME280;75722;49.004;12.120;2024-02-26T04:17:21;96175.81;;;-2.14;84.79
85319;BME280;75722;49.004;12.120;2024-02-26T04:19:47;96173.00;;;-2.12;84.80
85319;BME280;75722;49.004;12.120;2024-02-26T04:22:12;96176.84;;;-2.07;85.04
85319;BME280;75722;49.004;12.120;2024-02-26T04:24:38;96175.19;;;-2.08;84.88
85319;BME280;75722;49.004;12.120;2024-02-26T04:27:03;96181.16;;;-2.06;85.11
85319;BME280;75722;49.004;12.120;2024-02-26T04:29:28;96187.00;;;-2.02;84.73
85319;BME280;75722;49.004;12.120;2024-02-26T04:31:54;96195.91;;;-1.85;85.20
85319;BME280;75722;49.004;12.120;2024-02-26T04:34:19;96189.44;;;-1.82;85.01
85319;BME280;75722;49.004;12.120;2024-02-26T04:36:44;96195.75;;;-1.83;85.24
85319;BME280;75722;49.004;12.120;2024-02-26T04:39:10;96186.91;;;-1.92;85.16
85319;BME280;75722;49.004;12.120;2024-02-26T04:41:35;96182.84;;;-2.04;85.14
85319;BME280;75722;49.004;12.120;2024-02-26T04:44:01;96179.31;;;-2.13;85.04
85319;BME280;75722;49.004;12.120;2024-02-26T04:46:27;96181.06;;;-2.22;84.58
85319;BME280;75722;49.004;12.120;2024-02-26T04:48:53;96181.84;;;-2.30;84.89
85319;BME280;75722;49.004;12.120;2024-02-26T04:51:18;96189.03;;;-2.22;84.84
85319;BME280;75722;49.004;12.120;2024-02-26T04:53:44;96195.47;;;-2.25;84.51
85319;BME280;75722;49.004;12.120;2024-02-26T04:56:09;96191.66;;;-2.22;84.97
85319;BME280;75722;49.004;12.120;2024-02-26T04:58:34;96190.47;;;-2.28;84.57
85319;BME280;75722;49.004;12.120;2024-02-26T05:01:00;96189.56;;;-2.37;85.01
85319;BME280;75722;49.004;12.120;2024-02-26T05:03:25;96188.44;;;-2.34;84.84
85319;BME280;75722;49.004;12.120;2024-02-26T05:05:51;96192.28;;;-2.28;84.95
85319;BME280;75722;49.004;12.120;2024-02-26T05:08:16;96206.28;;;-2.18;84.77
85319;BME280;75722;49.004;12.120;2024-02-26T05:10:41;96196.78;;;-2.02;85.05
85319;BME280;75722;49.004;12.120;2024-02-26T05:13:08;96198.66;;;-1.95;85.09
85319;BME280;75722;49.004;12.120;2024-02-26T05:15:34;96196.81;;;-1.94;84.34
85319;BME280;75722;49.004;12.120;2024-02-26T05:17:59;96206.81;;;-1.88;84.83
85319;BME280;75722;49.004;12.120;2024-02-26T05:20:25;96212.16;;;-1.79;84.50
85319;BME280;75722;49.004;12.120;2024-02-26T05:22:50;96205.59;;;-1.67;84.69
85319;BME280;75722;49.004;12.120;2024-02-26T05:25:16;96205.19;;;-1.46;84.73
85319;BME280;75722;49.004;12.120;2024-02-26T05:27:43;96205.19;;;-1.46;84.82
85319;BME280;75722;49.004;12.120;2024-02-26T05:30:09;96211.97;;;-1.51;84.63
85319;BME280;75722;49.004;12.120;2024-02-26T05:32:34;96210.31;;;-1.52;84.01
85319;BME280;75722;49.004;12.120;2024-02-26T05:34:59;96219.28;;;-1.53;84.38
85319;BME280;75722;49.004;12.120;2024-02-26T05:37:25;96217.09;;;-1.58;84.10
85319;BME280;75722;49.004;12.120;2024-02-26T05:39:50;96213.50;;;-1.75;84.03
85319;BME280;75722;49.004;12.120;2024-02-26T05:42:17;96217.00;;;-1.75;83.73
85319;BME280;75722;49.004;12.120;2024-02-26T05:44:42;96217.47;;;-1.79;83.85
85319;BME280;75722;49.004;12.120;2024-02-26T05:47:07;96215.47;;;-1.86;83.85
85319;BME280;75722;49.004;12.120;2024-02-26T05:49:33;96206.78;;;-1.96;83.60
85319;BME280;75722;49.004;12.120;2024-02-26T05:51:58;96211.19;;;-2.05;83.84
85319;BME280;75722;49.004;12.120;2024-02-26T05:54:24;96212.28;;;-2.16;83.96
85319;BME280;75722;49.004;12.120;2024-02-26T05:56:49;96217.88;;;-2.19;83.98
85319;BME280;75722;49.004;12.120;2024-02-26T05:59:14;96222.22;;;-1.91;84.04
85319;BME280;75722;49.004;12.120;2024-02-26T06:01:41;96224.97;;;-1.75;83.97
85319;BME280;75722;49.004;12.120;2024-02-26T06:04:06;96230.47;;;-1.68;84.21
85319;BME280;75722;49.004;12.120;2024-02-26T06:06:31;96220.75;;;-1.59;84.43
85319;BME280;75722;49.004;12.120;2024-02-26T06:08:57;96220.69;;;-1.68;84.61
85319;BME280;75722;49.004;12.120;2024-02-26T06:11:22;96209.09;;;-1.66;84.38
85319;BME280;75722;49.004;12.120;2024-02-26T06:13:48;96217.19;;;-1.68;84.39
85319;BME280;75722;49.004;12.120;2024-02-26T06:16:13;96207.91;;;-1.72;84.54
85319;BME280;75722;49.004;12.120;2024-02-26T06:18:38;96217.75;;;-1.64;84.67
85319;BME280;75722;49.004;12.120;2024-02-26T06:21:04;96213.66;;;-1.50;84.41
85319;BME280;75722;49.004;12.120;2024-02-26T06:23:29;96224.97;;;-1.40;84.43
85319;BME280;75722;49.004;12.120;2024-02-26T06:25:54;96225.19;;;-1.33;83.93
85319;BME280;75722;49.004;12.120;2024-02-26T06:28:20;96224.19;;;-1.24;84.29
85319;BME280;75722;49.004;12.120;2024-02-26T06:30:45;96223.75;;;-1.11;83.50
85319;BME280;75722;49.004;12.120;2024-02-26T06:33:11;96222.50;;;-0.82;84.03
85319;BME280;75722;49.004;12.120;2024-02-26T06:35:37;96227.84;;;-0.57;83.08
85319;BME280;75722;49.004;12.120;2024-02-26T06:38:02;96235.19;;;-0.59;81.83
85319;BME280;75722;49.004;12.120;2024-02-26T06:40:28;96237.84;;;-0.50;81.38
85319;BME280;75722;49.004;12.120;2024-02-26T06:42:53;96238.50;;;-0.48;80.48
85319;BME280;75722;49.004;12.120;2024-02-26T06:45:18;96242.69;;;-0.37;80.83
85319;BME280;75722;49.004;12.120;2024-02-26T06:47:44;96243.16;;;-0.26;80.22
85319;BME280;75722;49.004;12.120;2024-02-26T06:50:11;96242.84;;;-0.06;80.13
85319;BME280;75722;49.004;12.120;2024-02-26T06:52:37;96229.88;;;-0.01;78.86
85319;BME280;75722;49.004;12.120;2024-02-26T06:55:02;96248.16;;;0.11;78.94
85319;BME280;75722;49.004;12.120;2024-02-26T06:57:28;96255.09;;;0.29;78.43
85319;BME280;75722;49.004;12.120;2024-02-26T06:59:53;96260.72;;;0.67;77.10
85319;BME280;75722;49.004;12.120;2024-02-26T07:02:18;96267.31;;;0.80;76.72
85319;BME280;75722;49.004;12.120;2024-02-26T07:04:44;96275.97;;;0.82;75.30
85319;BME280;75722;49.004;12.120;2024-02-26T07:07:09;96274.78;;;0.84;74.20
85319;BME280;75722;49.004;12.120;2024-02-26T07:09:36;96280.41;;;0.98;74.27
85319;BME280;75722;49.004;12.120;2024-02-26T07:12:01;96275.88;;;1.07;73.92
85319;BME280;75722;49.004;12.120;2024-02-26T07:14:27;96278.00;;;1.43;72.77
85319;BME280;75722;49.004;12.120;2024-02-26T07:16:53;96275.09;;;1.85;71.48
85319;BME280;75722;49.004;12.120;2024-02-26T07:19:18;96273.72;;;2.12;70.49
85319;BME280;75722;49.004;12.120;2024-02-26T07:21:43;96268.97;;;2.38;70.30
85319;BME280;75722;49.004;12.120;2024-02-26T07:24:09;96269.56;;;2.48;69.68
85319;BME280;75722;49.004;12.120;2024-02-26T07:26:34;96273.78;;;2.58;69.64
85319;BME280;75722;49.004;12.120;2024-02-26T07:28:59;96275.28;;;2.75;68.57
85319;BME280;75722;49.004;12.120;2024-02-26T07:31:25;96269.38;;;2.95;68.49
85319;BME280;75722;49.004;12.120;2024-02-26T07:33:50;96276.56;;;3.10;66.87
85319;BME280;75722;49.004;12.120;2024-02-26T07:36:16;96284.00;;;3.29;66.61
85319;BME280;75722;49.004;12.120;2024-02-26T07:38:42;96283.63;;;3.32;66.65
85319;BME280;75722;49.004;12.120;2024-02-26T07:41:07;96282.06;;;3.23;66.39
85319;BME280;75722;49.004;12.120;2024-02-26T07:43:32;96280.13;;;3.32;65.87
85319;BME280;75722;49.004;12.120;2024-02-26T07:45:58;96290.19;;;3.30;65.71
85319;BME280;75722;49.004;12.120;2024-02-26T07:48:23;96297.38;;;3.29;66.26
85319;BME280;75722;49.004;12.120;2024-02-26T07:50:48;96291.06;;;3.52;65.57
85319;BME280;75722;49.004;12.120;2024-02-26T07:53:14;96285.22;;;3.64;65.15
85319;BME280;75722;49.004;12.120;2024-02-26T07:55:39;96283.78;;;4.05;64.23
85319;BME280;75722;49.004;12.120;2024-02-26T07:58:04;96294.38;;;4.42;62.81
85319;BME280;75722;49.004;12.120;2024-02-26T08:00:30;96296.66;;;4.67;61.91
85319;BME280;75722;49.004;12.120;2024-02-26T08:02:55;96296.38;;;4.90;61.32
85319;BME280;75722;49.004;12.120;2024-02-26T08:05:20;96299.16;;;4.68;61.49
85319;BME280;75722;49.004;12.120;2024-02-26T08:07:46;96290.75;;;5.20;60.27
85319;BME280;75722;49.004;12.120;2024-02-26T08:10:11;96289.81;;;5.42;59.70
85319;BME280;75722;49.004;12.120;2024-02-26T08:12:37;96290.19;;;5.87;58.67
85319;BME280;75722;49.004;12.120;2024-02-26T08:15:02;96298.09;;;6.02;58.43
85319;BME280;75722;49.004;12.120;2024-02-26T08:17:28;96300.00;;;6.22;57.45
85319;BME280;75722;49.004;12.120;2024-02-26T08:19:53;96303.53;;;6.63;55.94
85319;BME280;75722;49.004;12.120;2024-02-26T08:22:19;96297.88;;;7.12;54.99
85319;BME280;75722;49.004;12.120;2024-02-26T08:24:44;96277.44;;;13.50;44.80
85319;BME280;75722;49.004;12.120;2024-02-26T08:27:10;96275.41;;;21.26;31.12
85319;BME280;75722;49.004;12.120;2024-02-26T08:29:35;96276.34;;;20.50;29.40
85319;BME280;75722;49.004;12.120;2024-02-26T08:32:01;96289.38;;;17.30;33.94
85319;BME280;75722;49.004;12.120;2024-02-26T08:34:26;96286.19;;;17.89;32.81
85319;BME280;75722;49.004;12.120;2024-02-26T08:36:51;96289.34;;;16.26;35.32
85319;BME280;75722;49.004;12.120;2024-02-26T08:39:17;96284.78;;;19.47;30.85
85319;BME280;75722;49.004;12.120;2024-02-26T08:41:46;96286.19;;;21.98;28.27
85319;BME280;75722;49.004;12.120;2024-02-26T08:44:11;96282.53;;;23.95;25.85
85319;BME280;75722;49.004;12.120;2024-02-26T08:46:37;96280.31;;;25.30;23.54
85319;BME280;75722;49.004;12.120;2024-02-26T08:49:02;96287.06;;;27.01;22.74
85319;BME280;75722;49.004;12.120;2024-02-26T08:51:28;96275.44;;;26.44;23.16
85319;BME280;75722;49.004;12.120;2024-02-26T08:53:53;96285.22;;;22.17;26.03
85319;BME280;75722;49.004;12.120;2024-02-26T08:56:19;96291.34;;;21.58;27.68
85319;BME280;75722;49.004;12.120;2024-02-26T08:58:46;96295.00;;;22.37;26.94
85319;BME280;75722;49.004;12.120;2024-02-26T09:01:14;96299.25;;;23.49;25.62
85319;BME280;75722;49.004;12.120;2024-02-26T09:03:39;96290.91;;;26.45;22.80
85319;BME280;75722;49.004;12.120;2024-02-26T09:06:05;96286.59;;;26.35;22.33
85319;BME280;75722;49.004;12.120;2024-02-26T09:08:32;96290.75;;;27.98;21.09
85319;BME280;75722;49.004;12.120;2024-02-26T09:10:57;96285.28;;;29.98;19.38
85319;BME280;75722;49.004;12.120;2024-02-26T09:13:22;96283.75;;;29.84;18.95
85319;BME280;75722;49.004;12.120;2024-02-26T09:15:48;96287.19;;;31.88;17.56
85319;BME280;75722;49.004;12.120;2024-02-26T09:18:13;96288.75;;;34.11;15.87
85319;BME280;75722;49.004;12.120;2024-02-26T09:20:40;96285.47;;;29.89;18.45
85319;BME280;75722;49.004;12.120;2024-02-26T09:23:05;96297.13;;;24.80;22.61
85319;BME280;75722;49.004;12.120;2024-02-26T09:25:30;96296.88;;;21.58;26.16
85319;BME280;75722;49.004;12.120;2024-02-26T09:27:56;96295.63;;;19.57;28.44
85319;BME280;75722;49.004;12.120;2024-02-26T09:30:21;96292.59;;;17.64;32.15
85319;BME280;75722;49.004;12.120;2024-02-26T09:32:46;96289.34;;;17.41;31.94
85319;BME280;75722;49.004;12.120;2024-02-26T09:35:13;96288.84;;;16.97;32.90
85319;BME280;75722;49.004;12.120;2024-02-26T09:37:38;96297.56;;;15.14;35.34
85319;BME280;75722;49.004;12.120;2024-02-26T09:40:04;96287.75;;;16.83;32.90
85319;BME280;75722;49.004;12.120;2024-02-26T09:42:31;96294.31;;;16.66;33.03
85319;BME280;75722;49.004;12.120;2024-02-26T09:45:00;96302.22;;;17.30;32.74
85319;BME280;75722;49.004;12.120;2024-02-26T09:47:31;96301.69;;;16.71;33.20
85319;BME280;75722;49.004;12.120;2024-02-26T09:49:58;96307.41;;;15.20;35.39
85319;BME280;75722;49.004;12.120;2024-02-26T09:52:25;96301.53;;;17.85;32.80
85319;BME280;75722;49.004;12.120;2024-02-26T09:54:51;96300.09;;;19.53;29.82
85319;BME280;75722;49.004;12.120;2024-02-26T09:57:16;96300.88;;;17.33;32.52
85319;BME280;75722;49.004;12.120;2024-02-26T09:59:43;96291.59;;;15.71;34.96
85319;BME280;75722;49.004;12.120;2024-02-26T10:02:11;96289.69;;;16.82;34.09
85319;BME280;75722;49.004;12.120;2024-02-26T10:04:38;96288.56;;;16.52;33.93
85319;BME280;75722;49.004;12.120;2024-02-26T10:07:07;96288.56;;;16.57;33.55
85319;BME280;75722;49.004;12.120;2024-02-26T10:09:34;96294.59;;;17.27;33.02
85319;BME280;75722;49.004;12.120;2024-02-26T10:12:00;96294.28;;;16.50;33.87
85319;BME280;75722;49.004;12.120;2024-02-26T10:14:26;96299.72;;;15.12;36.01
85319;BME280;75722;49.004;12.120;2024-02-26T10:16:51;96296.00;;;14.85;36.67
85319;BME280;75722;49.004;12.120;2024-02-26T10:19:28;96300.03;;;13.72;39.95
85319;BME280;75722;49.004;12.120;2024-02-26T10:21:58;96297.84;;;12.95;40.41
85319;BME280;75722;49.004;12.120;2024-02-26T10:24:28;96298.56;;;13.65;40.46
85319;BME280;75722;49.004;12.120;2024-02-26T10:26:55;96306.22;;;13.28;41.61
85319;BME280;75722;49.004;12.120;2024-02-26T10:29:21;96311.47;;;13.75;39.37
85319;BME280;75722;49.004;12.120;2024-02-26T10:31:47;96314.41;;;14.18;38.90
85319;BME280;75722;49.004;12.120;2024-02-26T10:34:14;96303.03;;;15.62;36.78
85319;BME280;75722;49.004;12.120;2024-02-26T10:36:40;96288.88;;;16.87;35.32
85319;BME280;75722;49.004;12.120;2024-02-26T10:39:09;96294.78;;;17.56;32.54
85319;BME280;75722;49.004;12.120;2024-02-26T10:41:34;96289.13;;;16.80;33.82
85319;BME280;75722;49.004;12.120;2024-02-26T10:44:00;96292.66;;;16.86;34.12
85319;BME280;75722;49.004;12.120;2024-02-26T10:46:26;96289.69;;;16.82;36.31
85319;BME280;75722;49.004;12.120;2024-02-26T10:48:52;96290.47;;;16.41;35.02
85319;BME280;75722;49.004;12.120;2024-02-26T10:51:21;96291.03;;;16.69;33.99
85319;BME280;75722;49.004;12.120;2024-02-26T10:53:47;96299.78;;;17.18;34.21
85319;BME280;75722;49.004;12.120;2024-02-26T10:56:15;96295.00;;;18.31;31.79
85319;BME280;75722;49.004;12.120;2024-02-26T10:58:43;96303.69;;;19.73;30.40
85319;BME280;75722;49.004;12.120;2024-02-26T11:01:11;96300.13;;;22.16;27.42
85319;BME280;75722;49.004;12.120;2024-02-26T11:03:38;96301.88;;;21.08;28.11
85319;BME280;75722;49.004;12.120;2024-02-26T11:06:04;96298.47;;;21.45;27.43
85319;BME280;75722;49.004;12.120;2024-02-26T11:08:31;96318.00;;;19.94;29.51
85319;BME280;75722;49.004;12.120;2024-02-26T11:10:57;96306.50;;;20.74;28.18
85319;BME280;75722;49.004;12.120;2024-02-26T11:13:27;96302.66;;;21.42;27.99
85319;BME280;75722;49.004;12.120;2024-02-26T11:15:56;96301.28;;;20.73;28.92
85319;BME280;75722;49.004;12.120;2024-02-26T11:18:23;96290.34;;;23.52;25.38
85319;BME280;75722;49.004;12.120;2024-02-26T11:20:51;96290.38;;;22.84;26.30
85319;BME280;75722;49.004;12.120;2024-02-26T11:23:20;96297.69;;;18.82;30.44
85319;BME280;75722;49.004;12.120;2024-02-26T11:25:45;96293.66;;;17.68;31.62
85319;BME280;75722;49.004;12.120;2024-02-26T11:28:15;96293.78;;;16.69;33.69
85319;BME280;75722;49.004;12.120;2024-02-26T11:30:45;96289.06;;;17.48;32.87
85319;BME280;75722;49.004;12.120;2024-02-26T11:33:12;96290.03;;;15.85;35.58
85319;BME280;75722;49.004;12.120;2024-02-26T11:35:39;96285.75;;;16.10;34.77
85319;BME280;75722;49.004;12.120;2024-02-26T11:38:04;96283.03;;;16.15;34.40
85319;BME280;75722;49.004;12.120;2024-02-26T11:40:32;96283.28;;;14.69;36.53
85319;BME280;75722;49.004;12.120;2024-02-26T11:42:58;96290.59;;;14.30;37.07
85319;BME280;75722;49.004;12.120;2024-02-26T11:48:04;96285.84;;;13.70;39.32
85319;BME280;75722;49.004;12.120;2024-02-26T11:50:38;96291.44;;;12.50;40.83
85319;BME280;75722;49.004;12.120;2024-02-26T11:58:43;96287.81;;;12.62;41.15
85319;BME280;75722;49.004;12.120;2024-02-26T12:04:04;96297.16;;;11.78;41.61
85319;BME280;75722;49.004;12.120;2024-02-26T12:06:30;96295.31;;;12.54;40.65
85319;BME280;75722;49.004;12.120;2024-02-26T12:08:56;96285.44;;;12.48;41.15
85319;BME280;75722;49.004;12.120;2024-02-26T12:11:21;96284.78;;;12.75;40.09
85319;BME280;75722;49.004;12.120;2024-02-26T12:13:47;96292.53;;;12.83;41.05
85319;BME280;75722;49.004;12.120;2024-02-26T12:16:37;96288.97;;;13.79;38.67
85319;BME280;75722;49.004;12.120;2024-02-26T12:19:07;96296.03;;;13.80;39.03
85319;BME280;75722;49.004;12.120;2024-02-26T12:21:37;96292.25;;;13.59;40.44
85319;BME280;75722;49.004;12.120;2024-02-26T12:24:11;96304.19;;;13.01;40.30
85319;BME280;75722;49.004;12.120;2024-02-26T12:26:38;96306.66;;;12.86;40.60
85319;BME280;75722;49.004;12.120;2024-02-26T12:29:03;96304.78;;;12.69;40.67
85319;BME280;75722;49.004;12.120;2024-02-26T12:31:28;96306.13;;;12.37;41.36
85319;BME280;75722;49.004;12.120;2024-02-26T12:33:54;96300.06;;;13.16;39.78
85319;BME280;75722;49.004;12.120;2024-02-26T12:36:21;96308.38;;;12.57;40.49
85319;BME280;75722;49.004;12.120;2024-02-26T12:38:46;96315.56;;;12.98;41.33
85319;BME280;75722;49.004;12.120;2024-02-26T12:41:12;96320.44;;;13.53;38.83
85319;BME280;75722;49.004;12.120;2024-02-26T12:43:38;96325.59;;;13.15;39.53
85319;BME280;75722;49.004;12.120;2024-02-26T12:46:03;96320.78;;;14.01;37.72
85319;BME280;75722;49.004;12.120;2024-02-26T12:48:29;96318.53;;;13.53;40.21
85319;BME280;75722;49.004;12.120;2024-02-26T12:50:54;96316.34;;;13.95;37.91
85319;BME280;75722;49.004;12.120;2024-02-26T12:53:21;96317.16;;;13.73;38.55
85319;BME280;75722;49.004;12.120;2024-02-26T12:55:49;96322.69;;;14.83;37.59
85319;BME280;75722;49.004;12.120;2024-02-26T12:58:15;96321.16;;;14.37;38.75
85319;BME280;75722;49.004;12.120;2024-02-26T13:00:40;96315.00;;;15.13;37.23